Time;durP1;ratioP1;P1;durP2;ratioP2;P2;SDS_P1;SDS_P2;PMS_P1;PMS_P2;Temp;Humidity;BMP_temperature;BMP_pressure;BME280_temperature;BME280_humidity;BME280_pressure;Samples;Min_cycle;Max_cycle;Signal;HPM_P1;HPM_P2
2023/02/10 00:00:18;;;;;;;31.53;18.30;;;3.00;99.90;;;;;;5033960;28;20258;-61
2023/02/10 00:02:45;;;;;;;30.40;18.20;;;3.00;99.90;;;;;;5036545;28;20522;-63
2023/02/10 00:05:12;;;;;;;23.07;15.43;;;3.10;99.90;;;;;;5037394;28;20618;-61
2023/02/10 00:07:38;;;;;;;26.90;17.17;;;3.00;99.90;;;;;;5038578;28;20785;-62
2023/02/10 00:10:06;;;;;;;27.67;17.23;;;3.00;99.90;;;;;;5017825;28;20288;-62
2023/02/10 00:12:37;;;;;;;24.43;16.33;;;3.10;99.90;;;;;;5034181;28;20212;-61
2023/02/10 00:15:05;;;;;;;25.90;15.37;;;3.10;99.90;;;;;;5034523;28;20334;-61
2023/02/10 00:17:32;;;;;;;23.57;15.67;;;3.10;99.90;;;;;;5034663;28;20212;-61
2023/02/10 00:19:58;;;;;;;23.50;16.17;;;3.00;99.90;;;;;;5035962;28;20671;-62
2023/02/10 00:22:25;;;;;;;28.90;16.73;;;3.00;99.90;;;;;;5036766;28;20205;-61
2023/02/10 00:24:52;;;;;;;24.43;15.90;;;3.00;99.90;;;;;;5017804;28;20534;-61
2023/02/10 00:27:23;;;;;;;24.27;16.47;;;3.00;99.90;;;;;;5037247;28;20216;-61
2023/02/10 00:29:51;;;;;;;25.83;15.63;;;3.00;99.90;;;;;;5032298;28;20374;-62
2023/02/10 00:32:18;;;;;;;26.43;15.80;;;2.90;99.90;;;;;;5033656;28;20208;-61
2023/02/10 00:34:45;;;;;;;22.93;15.57;;;3.00;99.90;;;;;;5035121;28;20258;-62
2023/02/10 00:37:12;;;;;;;24.27;15.83;;;3.00;99.90;;;;;;5036743;28;20303;-61
2023/02/10 00:39:39;;;;;;;30.83;15.87;;;3.00;99.90;;;;;;5032902;28;20208;-61
2023/02/10 00:42:06;;;;;;;26.43;15.63;;;3.00;99.90;;;;;;5033903;28;20565;-61
2023/02/10 00:44:32;;;;;;;26.93;15.70;;;3.00;99.90;;;;;;5029694;28;20223;-61
2023/02/10 00:46:59;;;;;;;24.30;15.50;;;2.80;99.90;;;;;;5031171;28;20207;-61
2023/02/10 00:49:26;;;;;;;26.37;15.87;;;2.70;99.90;;;;;;5024110;28;20616;-61
2023/02/10 00:51:53;;;;;;;25.20;15.23;;;2.70;99.90;;;;;;5028862;28;20714;-61
2023/02/10 00:54:20;;;;;;;24.87;16.40;;;2.70;99.90;;;;;;5033159;28;20211;-61
2023/02/10 00:56:46;;;;;;;24.40;16.07;;;2.70;99.90;;;;;;5033312;28;20219;-62
2023/02/10 00:59:13;;;;;;;24.13;15.10;;;2.70;99.90;;;;;;5031362;28;20205;-61
2023/02/10 01:01:40;;;;;;;26.03;15.57;;;2.70;99.90;;;;;;5036742;28;20238;-62
2023/02/10 01:04:07;;;;;;;24.20;15.10;;;2.90;99.90;;;;;;5036777;28;20204;-62
2023/02/10 01:06:33;;;;;;;24.37;16.20;;;3.00;99.90;;;;;;5033663;28;20286;-61
2023/02/10 01:09:00;;;;;;;21.07;14.27;;;2.90;99.90;;;;;;5030925;28;20627;-62
2023/02/10 01:11:27;;;;;;;22.27;14.60;;;3.00;99.90;;;;;;5036636;28;20902;-61
2023/02/10 01:13:54;;;;;;;22.17;14.80;;;3.00;99.90;;;;;;5030176;28;20307;-61
2023/02/10 01:16:21;;;;;;;23.00;13.93;;;2.80;99.90;;;;;;5033425;28;20349;-62
2023/02/10 01:18:48;;;;;;;24.40;14.63;;;2.70;99.90;;;;;;5030744;28;20273;-62
2023/02/10 01:21:18;;;;;;;24.17;14.27;;;2.70;99.90;;;;;;5036376;28;20291;-61
2023/02/10 01:23:46;;;;;;;22.70;14.00;;;2.90;99.90;;;;;;5037998;28;20212;-61
2023/02/10 01:26:13;;;;;;;20.77;14.27;;;2.90;99.90;;;;;;5034690;28;20200;-61
2023/02/10 01:28:41;;;;;;;25.33;13.40;;;2.80;99.90;;;;;;5034664;28;20633;-62
2023/02/10 01:31:14;;;;;;;23.60;12.87;;;2.80;99.90;;;;;;5033154;28;20579;-61
2023/02/10 01:33:41;;;;;;;20.37;13.90;;;2.60;99.90;;;;;;5038567;28;20287;-61
2023/02/10 01:36:14;;;;;;;24.73;14.07;;;2.60;99.90;;;;;;5031778;28;20711;-61
2023/02/10 01:38:41;;;;;;;23.67;15.40;;;2.70;99.90;;;;;;5037845;28;20778;-61
2023/02/10 01:41:08;;;;;;;26.40;16.57;;;2.60;99.90;;;;;;5038267;28;20196;-61
2023/02/10 01:43:59;;;;;;;30.03;16.23;;;2.60;99.90;;;;;;5036416;28;20194;-61
2023/02/10 01:46:32;;;;;;;32.67;16.97;;;2.60;99.90;;;;;;5037871;28;20216;-60
2023/02/10 01:49:08;;;;;;;29.83;18.03;;;2.60;99.90;;;;;;5035380;28;20209;-62
2023/02/10 01:51:44;;;;;;;28.07;17.67;;;2.60;99.90;;;;;;5038100;28;20249;-61
2023/02/10 01:54:16;;;;;;;32.53;18.90;;;2.50;99.90;;;;;;5039467;28;20678;-61
2023/02/10 01:56:43;;;;;;;28.80;18.47;;;2.50;99.90;;;;;;5040359;28;20324;-61
2023/02/10 01:59:10;;;;;;;32.70;19.37;;;2.60;99.90;;;;;;5033493;28;20216;-60
2023/02/10 02:01:36;;;;;;;30.50;18.43;;;2.60;99.90;;;;;;5033612;28;20671;-63
2023/02/10 02:04:03;;;;;;;34.37;19.90;;;2.50;99.90;;;;;;5040699;28;20210;-65
2023/02/10 02:06:33;;;;;;;34.47;18.70;;;2.40;99.90;;;;;;5033862;28;20296;-61
2023/02/10 02:09:01;;;;;;;34.97;19.43;;;2.30;99.90;;;;;;5036486;28;20641;-61
2023/02/10 02:11:47;;;;;;;38.00;19.77;;;2.50;99.90;;;;;;5054554;28;20214;-61
2023/02/10 02:14:36;;;;;;;30.23;17.93;;;2.40;99.90;;;;;;5039136;28;20202;-61
2023/02/10 02:17:12;;;;;;;32.40;19.43;;;2.40;99.90;;;;;;5038075;28;20248;-61
2023/02/10 02:19:45;;;;;;;33.10;19.53;;;2.40;99.90;;;;;;5034302;28;20213;-61
2023/02/10 02:22:53;;;;;;;30.20;18.47;;;2.40;99.90;;;;;;5023036;28;20202;-61
2023/02/10 02:25:27;;;;;;;31.37;17.37;;;2.50;99.90;;;;;;4993954;28;20210;-61
2023/02/10 02:28:06;;;;;;;35.87;20.63;;;2.50;99.90;;;;;;5037381;28;20212;-60
2023/02/10 02:31:12;;;;;;;33.67;19.17;;;2.40;99.90;;;;;;5035330;28;20213;-62
2023/02/10 02:34:02;;;;;;;33.00;18.53;;;2.30;99.90;;;;;;5036039;28;20217;-65
2023/02/10 02:36:40;;;;;;;29.33;18.33;;;2.20;99.90;;;;;;5039079;28;20244;-62
2023/02/10 02:39:07;;;;;;;32.63;20.57;;;2.30;99.90;;;;;;5035358;28;20699;-64
2023/02/10 02:41:34;;;;;;;29.00;18.43;;;2.30;99.90;;;;;;5040391;28;20306;-64
2023/02/10 02:44:05;;;;;;;35.33;19.03;;;2.30;99.90;;;;;;5037898;28;20289;-62
2023/02/10 02:46:50;;;;;;;34.70;19.13;;;2.20;99.90;;;;;;5039292;28;20326;-64
2023/02/10 02:49:26;;;;;;;36.23;18.43;;;2.20;99.90;;;;;;5031734;28;20208;-64
2023/02/10 02:52:11;;;;;;;33.80;18.07;;;2.20;99.90;;;;;;5040667;28;20664;-64
2023/02/10 02:54:57;;;;;;;31.03;18.67;;;2.20;99.90;;;;;;5036370;28;20572;-63
2023/02/10 02:57:24;;;;;;;33.33;18.73;;;2.30;99.90;;;;;;5039738;28;20219;-62
2023/02/10 03:00:05;;;;;;;33.00;19.63;;;2.10;99.90;;;;;;5035267;28;20287;-62
2023/02/10 03:02:33;;;;;;;39.07;20.63;;;2.20;99.90;;;;;;5036316;28;20243;-63
2023/02/10 03:05:00;;;;;;;32.17;19.37;;;2.20;99.90;;;;;;5033848;28;20632;-63
2023/02/10 03:07:27;;;;;;;34.63;18.03;;;2.10;99.90;;;;;;5028225;28;20202;-62
2023/02/10 03:09:53;;;;;;;29.67;18.47;;;2.00;99.90;;;;;;5030635;28;20210;-65
2023/02/10 03:12:20;;;;;;;33.43;19.03;;;2.00;99.90;;;;;;5033457;28;20202;-62
2023/02/10 03:14:47;;;;;;;31.23;18.13;;;2.00;99.90;;;;;;5035603;28;20547;-63
2023/02/10 03:17:14;;;;;;;31.43;18.70;;;2.10;99.90;;;;;;5035977;28;20200;-64
2023/02/10 03:19:40;;;;;;;30.10;17.43;;;2.00;99.90;;;;;;5033461;28;20560;-62
2023/02/10 03:22:07;;;;;;;29.60;18.17;;;1.90;99.90;;;;;;5039391;28;20216;-62
2023/02/10 03:24:34;;;;;;;31.83;17.43;;;1.90;99.90;;;;;;5037117;28;20192;-62
2023/02/10 03:27:01;;;;;;;34.97;19.17;;;1.90;99.90;;;;;;5038092;28;20207;-63
2023/02/10 03:29:28;;;;;;;32.23;18.83;;;1.90;99.90;;;;;;5034056;28;20227;-62
2023/02/10 03:31:55;;;;;;;35.27;20.20;;;1.90;99.90;;;;;;5032420;28;20223;-62
2023/02/10 03:34:22;;;;;;;30.13;18.47;;;1.80;99.90;;;;;;5036720;28;20205;-62
2023/02/10 03:36:48;;;;;;;30.00;18.20;;;2.00;99.90;;;;;;5036727;28;20237;-62
2023/02/10 03:39:15;;;;;;;33.20;19.53;;;1.90;99.90;;;;;;5035074;28;20637;-64
2023/02/10 03:41:42;;;;;;;32.60;19.53;;;2.00;99.90;;;;;;5034695;28;20204;-62
2023/02/10 03:44:09;;;;;;;31.20;18.63;;;1.90;99.90;;;;;;5028507;28;20283;-63
2023/02/10 03:46:36;;;;;;;32.70;19.27;;;1.90;99.90;;;;;;5033053;28;20730;-63
2023/02/10 03:49:04;;;;;;;42.30;20.60;;;1.90;99.90;;;;;;5033613;28;20293;-62
2023/02/10 03:51:30;;;;;;;38.37;19.13;;;2.00;99.90;;;;;;5033427;28;20208;-63
2023/02/10 03:53:57;;;;;;;34.10;20.03;;;2.00;99.90;;;;;;5036632;28;20209;-62
2023/02/10 03:56:24;;;;;;;35.13;19.13;;;1.80;99.90;;;;;;5036318;28;20202;-63
2023/02/10 03:58:51;;;;;;;34.70;19.77;;;1.70;99.90;;;;;;5032198;28;20830;-64
2023/02/10 04:01:18;;;;;;;33.10;19.53;;;1.90;99.90;;;;;;5034996;28;20268;-66
2023/02/10 04:03:45;;;;;;;39.37;19.93;;;1.80;99.90;;;;;;5035105;28;20559;-64
2023/02/10 04:06:12;;;;;;;32.67;20.00;;;1.80;99.90;;;;;;5030824;28;20556;-63
2023/02/10 04:08:39;;;;;;;30.43;19.07;;;1.80;99.90;;;;;;5031380;28;20243;-63
2023/02/10 04:11:07;;;;;;;36.87;21.63;;;1.80;99.90;;;;;;5025506;28;20212;-62
2023/02/10 04:13:35;;;;;;;36.53;20.30;;;1.70;99.90;;;;;;5030821;28;20300;-64
2023/02/10 04:16:08;;;;;;;39.80;20.70;;;1.80;99.90;;;;;;5027513;28;20740;-64
2023/02/10 04:18:36;;;;;;;37.93;20.57;;;1.80;99.90;;;;;;5031718;28;20595;-64
2023/02/10 04:21:03;;;;;;;34.10;20.13;;;1.80;99.90;;;;;;5032457;28;20297;-62
2023/02/10 04:23:30;;;;;;;36.53;20.90;;;1.70;99.90;;;;;;5037603;28;20263;-63
2023/02/10 04:25:58;;;;;;;36.10;20.70;;;1.70;99.90;;;;;;5030956;28;20649;-62
2023/02/10 04:28:26;;;;;;;36.87;21.03;;;1.70;99.90;;;;;;5032876;28;20202;-63
2023/02/10 04:30:59;;;;;;;36.40;21.07;;;1.70;99.90;;;;;;5028650;28;20218;-62
2023/02/10 04:33:26;;;;;;;35.90;19.87;;;1.60;99.90;;;;;;5031663;28;20734;-64
2023/02/10 04:35:55;;;;;;;33.73;19.17;;;1.70;99.90;;;;;;5031867;28;20224;-62
2023/02/10 04:38:22;;;;;;;36.80;20.93;;;1.70;99.90;;;;;;5034744;28;20219;-62
2023/02/10 04:40:49;;;;;;;37.10;21.00;;;1.70;99.90;;;;;;5034751;28;20567;-62
2023/02/10 04:43:16;;;;;;;35.93;20.67;;;1.50;99.90;;;;;;5030482;28;20198;-62
2023/02/10 04:45:43;;;;;;;36.83;20.23;;;1.60;99.90;;;;;;5032242;28;21860;-62
2023/02/10 04:48:09;;;;;;;33.27;20.17;;;1.60;99.90;;;;;;5030285;28;20199;-62
2023/02/10 04:50:37;;;;;;;39.57;20.37;;;1.50;99.90;;;;;;5031958;28;20236;-62
2023/02/10 04:53:05;;;;;;;36.40;21.73;;;1.40;99.90;;;;;;5034448;28;20232;-62
2023/02/10 04:55:32;;;;;;;40.60;21.23;;;1.50;99.90;;;;;;5033540;28;20206;-62
2023/02/10 04:57:59;;;;;;;47.10;21.47;;;1.50;99.90;;;;;;5024464;28;20244;-62
2023/02/10 05:00:27;;;;;;;41.33;21.60;;;1.50;99.90;;;;;;5027565;28;20218;-65
2023/02/10 05:02:54;;;;;;;38.60;22.13;;;1.40;99.90;;;;;;5031866;28;20572;-62
2023/02/10 05:05:20;;;;;;;36.10;20.00;;;1.40;99.90;;;;;;5033814;28;20202;-64
2023/02/10 05:07:47;;;;;;;36.83;20.87;;;1.40;99.90;;;;;;5027135;28;20649;-63
2023/02/10 05:10:14;;;;;;;36.57;24.00;;;1.40;99.90;;;;;;5031033;28;20748;-61
2023/02/10 05:12:41;;;;;;;38.80;22.13;;;1.40;99.90;;;;;;5031873;28;20660;-61
2023/02/10 05:15:08;;;;;;;42.93;22.27;;;1.40;99.90;;;;;;5028555;28;20264;-63
2023/02/10 05:17:35;;;;;;;48.00;22.40;;;1.40;99.90;;;;;;5031960;28;20297;-61
2023/02/10 05:20:03;;;;;;;38.03;21.97;;;1.50;99.90;;;;;;5028968;28;20230;-62
2023/02/10 05:22:30;;;;;;;40.83;23.20;;;1.40;99.90;;;;;;5033992;28;20202;-61
2023/02/10 05:24:57;;;;;;;41.87;23.67;;;1.40;99.90;;;;;;5031690;28;20219;-63
2023/02/10 05:27:25;;;;;;;44.27;24.73;;;1.40;99.90;;;;;;5032229;28;20192;-61
2023/02/10 05:29:52;;;;;;;48.67;24.37;;;1.40;99.90;;;;;;5027330;28;20553;-62
2023/02/10 05:32:19;;;;;;;47.67;25.87;;;1.30;99.90;;;;;;5033045;28;20277;-65
2023/02/10 05:34:45;;;;;;;51.00;25.73;;;1.30;99.90;;;;;;5031607;28;20204;-60
2023/02/10 05:37:12;;;;;;;53.77;26.33;;;1.30;99.90;;;;;;5027985;28;20287;-60
2023/02/10 05:39:39;;;;;;;56.77;25.80;;;1.20;99.90;;;;;;5027383;28;20227;-60
2023/02/10 05:42:06;;;;;;;54.03;25.60;;;1.30;99.90;;;;;;5032422;28;20206;-61
2023/02/10 05:44:33;;;;;;;55.13;25.87;;;1.20;99.90;;;;;;5044979;28;20288;-61
2023/02/10 05:47:00;;;;;;;58.57;28.93;;;1.20;99.90;;;;;;5029857;28;20287;-61
2023/02/10 05:49:27;;;;;;;56.03;26.27;;;1.00;99.90;;;;;;5025752;28;20213;-61
2023/02/10 05:51:54;;;;;;;63.60;25.17;;;1.00;99.90;;;;;;5026708;28;20225;-61
2023/02/10 05:54:20;;;;;;;77.70;26.07;;;1.00;99.90;;;;;;5030458;28;20660;-60
2023/02/10 05:56:49;;;;;;;43.73;22.33;;;0.90;99.90;;;;;;5030032;28;20660;-62
2023/02/10 05:59:16;;;;;;;52.43;23.87;;;0.80;99.90;;;;;;5029824;28;20290;-61
2023/02/10 06:01:43;;;;;;;53.53;24.00;;;0.70;99.90;;;;;;5030499;28;20561;-66
2023/02/10 06:04:10;;;;;;;50.27;22.03;;;0.70;99.90;;;;;;5029211;28;20213;-62
2023/02/10 06:06:37;;;;;;;46.40;22.33;;;0.70;99.90;;;;;;5026649;28;20608;-61
2023/02/10 06:09:05;;;;;;;41.03;20.13;;;0.60;99.90;;;;;;5029697;28;20237;-61
2023/02/10 06:11:32;;;;;;;42.53;22.43;;;0.70;99.90;;;;;;5031196;28;20232;-63
2023/02/10 06:13:59;;;;;;;37.47;21.50;;;0.60;99.90;;;;;;5027221;28;20575;-60
2023/02/10 06:16:26;;;;;;;59.23;21.17;;;0.60;99.90;;;;;;5029392;28;20296;-62
2023/02/10 06:18:53;;;;;;;45.97;21.17;;;0.60;99.90;;;;;;5026578;28;20223;-62
2023/02/10 06:21:22;;;;;;;51.30;21.00;;;0.60;99.90;;;;;;5031769;28;20209;-61
2023/02/10 06:23:50;;;;;;;40.17;21.00;;;0.60;99.90;;;;;;5033741;28;20202;-61
2023/02/10 06:26:17;;;;;;;61.03;21.33;;;0.60;99.90;;;;;;5036908;28;20202;-61
2023/02/10 06:28:44;;;;;;;50.07;20.70;;;0.50;99.90;;;;;;5032721;28;20208;-61
2023/02/10 06:31:11;;;;;;;51.73;22.17;;;0.60;99.90;;;;;;5031748;28;20214;-61
2023/02/10 06:33:37;;;;;;;45.20;19.93;;;0.60;99.90;;;;;;5036227;28;20555;-61
2023/02/10 06:36:07;;;;;;;46.63;19.37;;;0.60;99.90;;;;;;5035382;28;20223;-61
2023/02/10 06:38:35;;;;;;;50.80;21.90;;;0.60;99.90;;;;;;5031348;28;20322;-62
2023/02/10 06:41:02;;;;;;;54.03;21.00;;;0.50;99.90;;;;;;5029790;28;20239;-61
2023/02/10 06:43:29;;;;;;;39.73;19.70;;;0.60;99.90;;;;;;5029611;28;20197;-62
2023/02/10 06:45:56;;;;;;;47.47;20.43;;;0.50;99.90;;;;;;5028552;28;20626;-61
2023/02/10 06:48:23;;;;;;;53.50;20.73;;;0.50;99.90;;;;;;5033311;28;20201;-62
2023/02/10 06:50:50;;;;;;;50.87;21.70;;;0.60;99.90;;;;;;5036876;28;20226;-63
2023/02/10 06:53:16;;;;;;;51.47;20.43;;;0.60;99.90;;;;;;5028817;28;20235;-63
2023/02/10 06:55:43;;;;;;;39.47;20.42;;;0.50;99.90;;;;;;4672416;28;9999898;-63
2023/02/10 06:58:10;;;;;;;46.00;20.37;;;0.60;99.90;;;;;;5014057;28;20200;-62
2023/02/10 07:00:37;;;;;;;52.17;21.33;;;0.60;99.90;;;;;;5016515;28;20572;-62
2023/02/10 07:03:04;;;;;;;55.37;20.23;;;0.50;99.90;;;;;;5014538;28;20205;-62
2023/02/10 07:05:35;;;;;;;45.17;19.87;;;0.60;99.90;;;;;;5021733;28;20205;-62
2023/02/10 07:08:03;;;;;;;45.60;19.43;;;0.60;99.90;;;;;;5024991;28;20200;-63
2023/02/10 07:10:32;;;;;;;53.27;19.53;;;0.60;99.90;;;;;;5025433;28;20539;-61
2023/02/10 07:12:59;;;;;;;47.43;19.30;;;0.60;99.90;;;;;;5018772;28;20295;-62
2023/02/10 07:15:26;;;;;;;51.03;20.87;;;0.60;99.90;;;;;;5016437;28;20236;-62
2023/02/10 07:17:53;;;;;;;53.57;21.07;;;0.60;99.90;;;;;;5020603;28;20209;-62
2023/02/10 07:20:21;;;;;;;62.83;21.20;;;0.60;99.90;;;;;;5023734;28;20672;-61
2023/02/10 07:22:48;;;;;;;48.43;19.87;;;0.70;99.90;;;;;;5022485;28;21626;-62
2023/02/10 07:25:15;;;;;;;40.53;20.27;;;0.70;99.90;;;;;;5024048;28;20307;-64
2023/02/10 07:27:43;;;;;;;45.73;20.83;;;0.80;99.90;;;;;;5013599;28;20205;-61
2023/02/10 07:30:11;;;;;;;44.17;21.03;;;0.80;99.90;;;;;;5013112;28;20204;-62
2023/02/10 07:32:38;;;;;;;44.90;20.80;;;0.70;99.90;;;;;;5026382;28;20286;-62
2023/02/10 07:35:05;;;;;;;44.43;20.60;;;0.80;99.90;;;;;;5025862;28;20217;-62
2023/02/10 07:37:32;;;;;;;48.13;20.27;;;0.90;99.90;;;;;;5027166;28;20232;-62
2023/02/10 07:39:58;;;;;;;48.37;19.97;;;1.00;99.90;;;;;;5024673;28;20710;-62
2023/02/10 07:42:25;;;;;;;44.43;20.60;;;1.00;99.90;;;;;;5017572;28;20212;-61
2023/02/10 07:44:52;;;;;;;52.67;20.80;;;0.90;99.90;;;;;;5022291;28;20231;-61
2023/02/10 07:47:19;;;;;;;59.93;22.50;;;0.90;99.90;;;;;;5029240;28;20198;-63
2023/02/10 07:49:45;;;;;;;52.33;21.03;;;1.00;99.90;;;;;;5026047;28;20212;-62
2023/02/10 07:52:12;;;;;;;54.47;22.37;;;1.00;99.90;;;;;;5030406;28;20217;-61
2023/02/10 07:54:39;;;;;;;57.73;21.70;;;1.10;99.90;;;;;;5025819;28;20209;-61
2023/02/10 07:57:06;;;;;;;43.17;21.23;;;1.10;99.90;;;;;;5024534;28;20672;-61
2023/02/10 07:59:33;;;;;;;58.83;24.57;;;1.10;99.90;;;;;;5022152;28;20258;-63
2023/02/10 08:01:59;;;;;;;58.70;22.70;;;1.20;99.90;;;;;;5035696;28;20597;-61
2023/02/10 08:04:26;;;;;;;55.67;22.57;;;1.30;99.90;;;;;;5030415;28;20576;-61
2023/02/10 08:06:55;;;;;;;63.73;23.57;;;1.30;99.90;;;;;;5025421;28;20285;-64
2023/02/10 08:09:22;;;;;;;57.33;23.00;;;1.50;99.90;;;;;;5018963;28;20215;-62
2023/02/10 08:11:49;;;;;;;52.00;22.37;;;1.40;99.90;;;;;;5015955;28;20226;-62
2023/02/10 08:14:16;;;;;;;50.60;21.57;;;1.40;99.90;;;;;;5004648;28;20199;-62
2023/02/10 08:16:43;;;;;;;62.13;22.47;;;1.50;99.90;;;;;;5014476;28;20584;-62
2023/02/10 08:19:09;;;;;;;58.43;23.37;;;1.50;99.90;;;;;;5009203;28;20220;-62
2023/02/10 08:21:36;;;;;;;54.43;21.53;;;1.60;99.90;;;;;;5012168;28;20661;-62
2023/02/10 08:24:03;;;;;;;55.87;22.33;;;1.70;99.90;;;;;;5017706;28;20386;-62
2023/02/10 08:26:30;;;;;;;51.13;22.90;;;1.70;99.90;;;;;;5022596;28;20891;-63
2023/02/10 08:28:59;;;;;;;54.53;22.33;;;1.80;99.90;;;;;;5015799;28;20212;-64
2023/02/10 08:31:26;;;;;;;66.53;22.33;;;1.80;99.90;;;;;;5023794;28;20200;-62
2023/02/10 08:33:54;;;;;;;48.47;21.63;;;1.70;99.90;;;;;;5023192;28;20549;-62
2023/02/10 08:36:21;;;;;;;48.30;21.97;;;1.80;99.90;;;;;;5009759;28;22250;-62
2023/02/10 08:38:49;;;;;;;58.37;22.93;;;1.70;99.90;;;;;;5016676;28;20677;-62
2023/02/10 08:41:16;;;;;;;59.50;22.00;;;1.90;99.90;;;;;;5010020;28;20233;-62
2023/02/10 08:43:43;;;;;;;57.93;23.20;;;1.90;99.90;;;;;;5024295;28;20322;-63
2023/02/10 08:46:11;;;;;;;60.33;23.03;;;2.00;99.90;;;;;;5022346;28;20289;-66
2023/02/10 08:48:38;;;;;;;61.43;25.03;;;2.10;99.90;;;;;;5012930;28;20642;-62
2023/02/10 08:51:07;;;;;;;66.47;23.53;;;2.20;99.90;;;;;;5026429;28;20253;-62
2023/02/10 08:53:34;;;;;;;67.87;23.97;;;2.20;99.90;;;;;;5024026;28;20733;-62
2023/02/10 08:56:10;;;;;;;66.73;25.63;;;2.30;99.90;;;;;;5027020;28;20210;-63
2023/02/10 08:58:37;;;;;;;68.77;24.63;;;2.30;99.90;;;;;;5020553;28;20689;-62
2023/02/10 09:01:13;;;;;;;68.63;25.40;;;2.30;99.90;;;;;;5024712;28;20212;-63
2023/02/10 09:03:41;;;;;;;71.63;25.10;;;2.40;99.90;;;;;;5028145;28;20221;-63
2023/02/10 09:06:14;;;;;;;64.03;26.67;;;2.60;99.90;;;;;;5019853;28;20645;-62
2023/02/10 09:08:43;;;;;;;75.53;25.70;;;2.70;99.90;;;;;;5015151;28;20225;-63
2023/02/10 09:11:10;;;;;;;68.43;24.20;;;2.70;99.90;;;;;;5031264;28;20756;-62
2023/02/10 09:13:36;;;;;;;63.67;23.47;;;2.70;99.90;;;;;;5020062;28;20595;-62
2023/02/10 09:16:03;;;;;;;77.37;26.57;;;2.70;99.90;;;;;;5021842;28;20249;-62
2023/02/10 09:18:30;;;;;;;68.70;24.47;;;2.70;99.90;;;;;;5016765;28;20308;-62
2023/02/10 09:20:59;;;;;;;80.70;25.40;;;2.70;99.90;;;;;;5025582;28;20280;-63
2023/02/10 09:23:25;;;;;;;75.63;25.37;;;2.70;99.90;;;;;;5020840;28;20254;-62
2023/02/10 09:25:54;;;;;;;72.27;26.10;;;2.90;99.90;;;;;;5025667;28;20200;-63
2023/02/10 09:28:21;;;;;;;73.87;26.67;;;2.90;99.90;;;;;;5020153;28;20288;-63
2023/02/10 09:30:48;;;;;;;79.30;27.13;;;3.00;99.90;;;;;;5028933;28;20229;-63
2023/02/10 09:33:16;;;;;;;72.33;24.70;;;3.00;99.90;;;;;;5047410;28;20237;-62
2023/02/10 09:35:42;;;;;;;80.30;26.83;;;3.10;99.90;;;;;;5030237;28;20246;-63
2023/02/10 09:38:11;;;;;;;81.43;26.17;;;3.00;99.90;;;;;;5026179;28;20313;-63
2023/02/10 09:41:06;;;;;;;84.67;29.47;;;3.10;99.90;;;;;;5029355;28;20232;-63
2023/02/10 09:43:55;;;;;;;72.57;26.90;;;3.20;99.90;;;;;;5028961;28;20361;-62
2023/02/10 09:46:29;;;;;;;75.30;27.17;;;3.20;99.90;;;;;;5018816;28;20783;-62
2023/02/10 09:49:26;;;;;;;73.47;26.77;;;3.30;99.90;;;;;;5012682;28;20205;-63
2023/02/10 09:52:07;;;;;;;82.70;27.37;;;3.20;99.90;;;;;;5027434;28;20307;-63
2023/02/10 09:54:34;;;;;;;66.07;26.03;;;3.40;99.90;;;;;;5032008;28;20209;-64
2023/02/10 09:57:13;;;;;;;83.07;27.60;;;3.40;99.90;;;;;;5030856;28;20251;-66
2023/02/10 09:59:42;;;;;;;79.57;26.30;;;3.40;99.90;;;;;;5032610;28;20299;-63
2023/02/10 10:02:24;;;;;;;81.73;27.70;;;3.60;99.90;;;;;;5026563;28;20210;-64
2023/02/10 10:04:52;;;;;;;80.00;27.67;;;4.10;99.90;;;;;;5026446;28;20647;-63
2023/02/10 10:07:25;;;;;;;71.37;27.87;;;4.20;99.90;;;;;;5018006;28;20310;-63
2023/02/10 10:10:03;;;;;;;70.73;28.33;;;4.30;99.90;;;;;;5019096;28;20214;-63
2023/02/10 10:12:30;;;;;;;67.30;25.10;;;4.60;99.90;;;;;;5026491;28;20607;-63
2023/02/10 10:14:57;;;;;;;61.87;25.70;;;4.60;99.90;;;;;;5026636;28;21262;-63
2023/02/10 10:17:42;;;;;;;79.03;27.67;;;4.60;99.90;;;;;;5028674;28;20334;-64
2023/02/10 10:20:32;;;;;;;68.67;26.23;;;4.60;99.90;;;;;;5030099;28;20587;-63
2023/02/10 10:23:25;;;;;;;65.83;24.30;;;4.60;99.90;;;;;;5025920;28;20648;-65
2023/02/10 10:26:15;;;;;;;66.23;25.30;;;4.50;99.90;;;;;;5031042;28;20208;-65
2023/02/10 10:29:22;;;;;;;61.53;24.40;;;4.90;99.90;;;;;;5033485;28;20672;-64
2023/02/10 10:31:57;;;;;;;57.40;22.63;;;4.90;99.90;;;;;;5036509;28;20740;-65
2023/02/10 10:34:29;;;;;;;52.37;21.17;;;5.00;99.90;;;;;;5032001;28;20213;-66
2023/02/10 10:36:58;;;;;;;50.33;22.20;;;5.30;99.90;;;;;;5026667;28;20609;-64
2023/02/10 10:39:41;;;;;;;55.97;21.83;;;5.30;99.90;;;;;;5029933;28;20365;-64
2023/02/10 10:42:17;;;;;;;58.53;21.60;;;5.50;99.90;;;;;;5028717;28;20295;-64
2023/02/10 10:44:48;;;;;;;49.40;21.23;;;5.70;99.90;;;;;;5046605;28;20633;-64
2023/02/10 10:47:20;;;;;;;52.80;22.20;;;5.70;99.90;;;;;;5029629;28;20204;-64
2023/02/10 10:49:46;;;;;;;51.13;21.70;;;5.80;99.90;;;;;;5026716;28;20202;-64
2023/02/10 10:52:37;;;;;;;51.20;21.20;;;6.00;99.90;;;;;;5029902;28;20208;-66
2023/02/10 10:55:17;;;;;;;48.73;20.87;;;5.90;99.90;;;;;;5033276;28;20211;-65
2023/02/10 10:57:44;;;;;;;50.40;22.57;;;5.90;99.90;;;;;;5026601;28;20283;-65
2023/02/10 11:00:20;;;;;;;50.03;21.90;;;5.90;99.90;;;;;;5024716;28;20904;-65
2023/02/10 11:03:03;;;;;;;53.03;22.37;;;6.10;99.90;;;;;;5025416;28;21075;-65
2023/02/10 11:05:36;;;;;;;53.60;22.80;;;6.30;99.90;;;;;;5032144;28;20233;-65
2023/02/10 11:08:20;;;;;;;45.93;20.93;;;6.60;99.90;;;;;;5023590;28;20563;-67
2023/02/10 11:10:51;;;;;;;48.73;22.47;;;6.90;99.90;;;;;;5035240;28;20196;-65
2023/02/10 11:13:28;;;;;;;48.20;22.27;;;7.10;99.90;;;;;;5028697;28;20235;-68
2023/02/10 11:16:15;;;;;;;53.57;22.93;;;7.10;99.90;;;;;;5030758;28;20209;-65
2023/02/10 11:18:58;;;;;;;46.37;21.77;;;7.40;99.90;;;;;;5027147;28;22786;-65
2023/02/10 11:21:40;;;;;;;48.20;23.00;;;7.40;99.90;;;;;;5021815;28;20226;-68
2023/02/10 11:24:32;;;;;;;54.20;22.13;;;7.30;99.90;;;;;;5028191;28;20295;-65
2023/02/10 11:27:03;;;;;;;48.33;22.50;;;7.60;99.90;;;;;;5018604;28;20598;-64
2023/02/10 11:29:46;;;;;;;57.00;22.47;;;7.90;99.90;;;;;;5024407;28;21397;-64
2023/02/10 11:32:21;;;;;;;50.90;22.80;;;7.70;99.90;;;;;;5033268;28;20668;-64
2023/02/10 11:34:49;;;;;;;43.37;20.27;;;7.50;99.90;;;;;;5027716;28;20231;-64
2023/02/10 11:37:26;;;;;;;52.17;21.00;;;7.40;99.90;;;;;;5036270;28;20222;-64
2023/02/10 11:39:55;;;;;;;49.07;22.23;;;7.40;99.90;;;;;;5029467;28;20228;-64
2023/02/10 11:42:24;;;;;;;41.07;21.17;;;7.40;99.90;;;;;;5020239;28;20283;-64
2023/02/10 11:45:02;;;;;;;43.93;21.70;;;7.70;99.90;;;;;;5037912;28;20247;-65
2023/02/10 11:47:31;;;;;;;42.93;21.83;;;7.90;99.90;;;;;;5036847;28;20214;-64
2023/02/10 11:49:59;;;;;;;47.87;21.70;;;8.10;99.90;;;;;;5032347;28;20663;-65
2023/02/10 11:52:33;;;;;;;42.07;19.77;;;8.40;99.90;;;;;;5037190;28;20264;-65
2023/02/10 11:55:01;;;;;;;47.40;20.87;;;8.20;99.90;;;;;;5036928;28;20200;-64
2023/02/10 12:00:54;;;;;;;47.30;22.43;;;8.30;99.90;;;;;;5025341;28;20319;-64
2023/02/10 12:03:26;;;;;;;49.43;23.23;;;8.20;99.90;;;;;;5028228;28;20251;-65
2023/02/10 12:06:34;;;;;;;48.93;23.03;;;8.30;99.90;;;;;;5027784;28;20205;-64
2023/02/10 12:09:45;;;;;;;48.43;22.97;;;8.40;99.90;;;;;;5024153;28;20717;-66
2023/02/10 12:12:24;;;;;;;50.37;22.60;;;9.00;99.90;;;;;;5011273;28;20659;-65
2023/02/10 12:15:05;;;;;;;52.43;23.73;;;9.00;99.90;;;;;;5029217;28;20919;-64
2023/02/10 12:17:37;;;;;;;51.90;23.43;;;8.70;99.90;;;;;;5029848;28;20642;-64
2023/02/10 12:20:25;;;;;;;49.73;24.83;;;8.60;99.90;;;;;;5026994;28;20219;-64
2023/02/10 12:23:13;;;;;;;51.10;25.63;;;8.60;99.90;;;;;;5028390;28;20706;-65
2023/02/10 12:25:56;;;;;;;55.53;25.10;;;8.70;99.90;;;;;;5032330;28;20317;-66
2023/02/10 12:28:56;;;;;;;50.40;26.93;;;9.10;99.90;;;;;;5035550;28;20200;-65
2023/02/10 12:31:37;;;;;;;41.60;23.17;;;9.60;99.90;;;;;;5034035;28;20214;-66
2023/02/10 12:34:37;;;;;;;50.10;25.30;;;10.20;99.90;;;;;;5037693;28;20211;-65
2023/02/10 12:37:54;;;;;;;53.63;26.67;;;10.00;99.90;;;;;;5035184;28;20221;-65
2023/02/10 12:40:30;;;;;;;51.83;25.83;;;9.50;99.90;;;;;;4999128;28;20297;-64
2023/02/10 12:43:17;;;;;;;52.20;27.23;;;9.80;99.90;;;;;;5034960;28;20620;-65
2023/02/10 12:46:18;;;;;;;51.73;25.43;;;10.10;99.90;;;;;;5004090;28;20303;-67
2023/02/10 12:49:04;;;;;;;49.33;25.73;;;9.80;99.90;;;;;;5014755;28;20747;-66
2023/02/10 12:51:53;;;;;;;49.77;26.23;;;10.00;99.90;;;;;;5036357;28;20678;-66
2023/02/10 12:54:41;;;;;;;52.27;26.87;;;9.90;99.90;;;;;;5037123;28;20208;-66
2023/02/10 12:57:21;;;;;;;53.03;27.50;;;9.50;99.90;;;;;;5037283;28;20546;-66
2023/02/10 13:00:03;;;;;;;52.83;26.00;;;8.80;99.90;;;;;;5027172;28;20202;-64